Time;durP1;ratioP1;P1;durP2;ratioP2;P2;SDS_P1;SDS_P2;PMS_P1;PMS_P2;Temp;Humidity;BMP_temperature;BMP_pressure;BME280_temperature;BME280_humidity;BME280_pressure;Samples;Min_cycle;Max_cycle;Signal;HPM_P1;HPM_P2
2022/04/22 00:00:20;;;;;;;5.53;4.90;;;7.70;99.90;;;;;;497806;238;27590;-71
2022/04/22 00:02:21;;;;;;;7.83;4.67;;;7.60;99.90;;;;;;495050;238;27759;-67
2022/04/22 00:04:22;;;;;;;5.93;5.33;;;7.50;99.90;;;;;;492660;238;27844;-67
2022/04/22 00:06:24;;;;;;;5.20;4.70;;;7.50;99.90;;;;;;491569;241;27576;-68
2022/04/22 00:08:25;;;;;;;7.60;5.40;;;7.40;99.90;;;;;;494108;238;27943;-68
2022/04/22 00:10:26;;;;;;;5.27;4.77;;;7.40;99.90;;;;;;495100;238;27813;-72
2022/04/22 00:12:27;;;;;;;5.80;4.87;;;7.30;99.90;;;;;;498709;238;28019;-67
2022/04/22 00:14:29;;;;;;;6.50;5.60;;;7.20;99.90;;;;;;498614;238;27929;-67
2022/04/22 00:16:33;;;;;;;5.30;4.80;;;7.20;99.90;;;;;;498734;238;27798;-66
2022/04/22 00:18:34;;;;;;;6.07;5.57;;;7.20;99.90;;;;;;498740;238;27914;-67
2022/04/22 00:20:36;;;;;;;6.70;5.40;;;7.10;99.90;;;;;;498675;238;28507;-66
2022/04/22 00:22:37;;;;;;;5.80;5.10;;;7.10;99.90;;;;;;498609;238;28449;-68
2022/04/22 00:24:38;;;;;;;5.53;5.03;;;7.10;99.90;;;;;;498135;238;28322;-72
2022/04/22 00:26:39;;;;;;;6.10;5.50;;;7.10;99.90;;;;;;493897;238;28291;-67
2022/04/22 00:28:40;;;;;;;6.80;5.50;;;7.10;99.90;;;;;;494040;238;28238;-67
2022/04/22 00:30:42;;;;;;;7.17;6.10;;;7.00;99.90;;;;;;497278;238;28355;-67
2022/04/22 00:32:43;;;;;;;6.65;5.57;;;7.00;99.90;;;;;;494281;238;28778;-68
2022/04/22 00:34:45;;;;;;;8.90;6.47;;;7.00;99.90;;;;;;494506;238;27451;-66
2022/04/22 00:36:45;;;;;;;7.33;6.00;;;7.00;99.90;;;;;;496486;238;27900;-67
2022/04/22 00:38:47;;;;;;;8.30;6.63;;;7.00;99.90;;;;;;496485;238;27930;-66
2022/04/22 00:40:48;;;;;;;8.20;6.87;;;7.00;99.90;;;;;;493313;238;28125;-70
2022/04/22 00:42:50;;;;;;;8.83;7.40;;;7.00;99.90;;;;;;496800;238;28043;-70
2022/04/22 00:44:50;;;;;;;10.47;7.13;;;6.90;99.90;;;;;;496247;237;28848;-69
2022/04/22 00:46:52;;;;;;;11.50;7.77;;;7.00;99.90;;;;;;496646;238;27813;-67
2022/04/22 00:48:53;;;;;;;10.50;7.80;;;6.90;99.90;;;;;;494963;238;27907;-67
2022/04/22 00:50:54;;;;;;;11.70;7.90;;;6.90;99.90;;;;;;495187;238;28460;-67
2022/04/22 00:52:55;;;;;;;9.57;8.20;;;6.90;99.90;;;;;;494490;238;28482;-68
2022/04/22 00:54:57;;;;;;;10.07;8.13;;;6.90;99.90;;;;;;495116;238;28230;-67
2022/04/22 00:56:58;;;;;;;10.63;7.67;;;6.90;99.90;;;;;;496317;238;28503;-67
2022/04/22 00:58:59;;;;;;;11.20;9.05;;;6.90;99.90;;;;;;492934;238;28797;-67
2022/04/22 01:01:00;;;;;;;12.10;8.97;;;6.80;99.90;;;;;;492978;238;27583;-66
2022/04/22 01:03:02;;;;;;;12.23;8.38;;;6.80;99.90;;;;;;494426;238;28016;-70
2022/04/22 01:09:48;;;;;;;14.87;9.97;;;6.70;99.90;;;;;;491575;242;28535;-69
2022/04/22 01:11:50;;;;;;;14.73;9.75;;;6.70;99.90;;;;;;491535;241;28753;-68
2022/04/22 01:13:51;;;;;;;13.10;9.18;;;6.70;99.90;;;;;;491557;241;27477;-68
2022/04/22 01:15:52;;;;;;;13.85;9.57;;;6.70;99.90;;;;;;491510;241;27956;-72
2022/04/22 01:17:53;;;;;;;13.90;9.33;;;6.60;99.90;;;;;;491569;241;27580;-68
2022/04/22 01:19:54;;;;;;;14.57;10.15;;;6.60;99.90;;;;;;491577;241;28504;-69
2022/04/22 01:21:56;;;;;;;13.37;9.77;;;6.60;99.90;;;;;;492048;238;27561;-68
2022/04/22 01:23:57;;;;;;;13.60;9.55;;;6.60;99.90;;;;;;498436;238;28723;-68
2022/04/22 01:26:00;;;;;;;14.13;10.07;;;6.60;99.90;;;;;;493694;238;27589;-72
2022/04/22 01:27:59;;;;;;;15.15;10.55;;;6.60;99.90;;;;;;493955;238;27918;-67
2022/04/22 01:30:01;;;;;;;14.23;10.15;;;6.60;99.90;;;;;;497357;238;27468;-69
2022/04/22 01:32:02;;;;;;;13.90;9.65;;;6.50;99.90;;;;;;493757;238;27515;-68
2022/04/22 01:34:03;;;;;;;18.63;10.47;;;6.50;99.90;;;;;;495307;238;27484;-69
2022/04/22 01:36:04;;;;;;;15.65;9.75;;;6.50;99.90;;;;;;495975;238;28773;-70
2022/04/22 01:38:06;;;;;;;14.17;10.07;;;6.50;99.90;;;;;;495468;238;27979;-68
2022/04/22 01:40:07;;;;;;;13.55;10.63;;;6.50;99.90;;;;;;492501;238;29155;-68
2022/04/22 01:42:09;;;;;;;15.93;10.13;;;6.40;99.90;;;;;;496254;238;27494;-68
2022/04/22 01:44:09;;;;;;;14.27;9.95;;;6.40;99.90;;;;;;497042;238;27339;-68
2022/04/22 01:46:14;;;;;;;14.23;11.32;;;6.40;99.90;;;;;;494696;238;27503;-70
2022/04/22 01:48:12;;;;;;;14.43;11.20;;;6.40;99.90;;;;;;496269;238;28009;-68
2022/04/22 01:50:13;;;;;;;12.80;10.47;;;6.30;99.90;;;;;;495163;238;28468;-69
2022/04/22 01:52:15;;;;;;;12.93;9.20;;;6.30;99.90;;;;;;492273;238;30308;-68
2022/04/22 01:54:16;;;;;;;16.85;10.80;;;6.30;99.90;;;;;;494853;238;28019;-68
2022/04/22 01:56:17;;;;;;;18.70;11.68;;;6.30;99.90;;;;;;497060;238;27377;-70
2022/04/22 01:58:19;;;;;;;16.90;11.30;;;6.30;99.90;;;;;;493764;238;27540;-68
2022/04/22 02:00:20;;;;;;;15.80;10.38;;;6.30;99.90;;;;;;493734;238;28928;-69
2022/04/22 02:02:21;;;;;;;17.23;12.02;;;6.20;99.90;;;;;;496546;238;28645;-69
2022/04/22 02:04:22;;;;;;;14.60;10.80;;;6.20;99.90;;;;;;494942;238;27385;-69
2022/04/22 02:06:23;;;;;;;17.77;11.10;;;6.20;99.90;;;;;;497729;238;28794;-70
2022/04/22 02:08:25;;;;;;;16.58;11.63;;;6.20;99.90;;;;;;491493;238;28859;-68
2022/04/22 02:10:26;;;;;;;17.55;12.70;;;6.10;99.90;;;;;;495100;238;27413;-69
2022/04/22 02:12:27;;;;;;;16.90;11.83;;;6.10;99.90;;;;;;494602;238;27542;-67
2022/04/22 02:14:29;;;;;;;18.77;12.57;;;6.10;99.90;;;;;;495279;238;29277;-68
2022/04/22 02:16:30;;;;;;;16.23;11.70;;;6.10;99.90;;;;;;495618;238;29246;-70
2022/04/22 02:18:31;;;;;;;18.50;12.10;;;6.00;99.90;;;;;;494595;238;27366;-67
2022/04/22 02:20:32;;;;;;;17.98;12.40;;;6.00;99.90;;;;;;493682;238;27463;-69
2022/04/22 02:22:34;;;;;;;21.15;12.57;;;6.00;99.90;;;;;;494999;238;27819;-71
2022/04/22 02:24:35;;;;;;;17.00;12.88;;;6.00;99.90;;;;;;497046;238;27856;-69
2022/04/22 02:28:56;;;;;;;18.27;11.70;;;6.00;99.90;;;;;;496956;238;27850;-71
2022/04/22 02:30:57;;;;;;;25.27;13.45;;;6.00;99.90;;;;;;494951;238;27487;-68
2022/04/22 02:32:58;;;;;;;17.90;12.27;;;6.00;99.90;;;;;;494979;238;27461;-69
2022/04/22 02:34:59;;;;;;;20.17;14.07;;;5.90;99.90;;;;;;497662;238;27341;-68
2022/04/22 02:37:01;;;;;;;19.05;13.50;;;5.90;99.90;;;;;;497060;238;27389;-68
2022/04/22 02:39:02;;;;;;;20.33;14.30;;;5.90;99.90;;;;;;497951;238;27377;-69
2022/04/22 02:45:42;;;;;;;18.67;13.35;;;5.90;99.90;;;;;;495147;238;27403;-69
2022/04/22 02:47:43;;;;;;;21.48;14.80;;;5.90;99.90;;;;;;494026;238;27783;-69
2022/04/22 02:49:45;;;;;;;21.25;13.57;;;5.80;99.90;;;;;;498642;238;27839;-68
2022/04/22 02:51:46;;;;;;;19.80;14.15;;;5.80;99.90;;;;;;495049;238;27789;-68
2022/04/22 02:53:47;;;;;;;20.50;14.07;;;5.80;99.90;;;;;;498324;238;27471;-68
2022/04/22 02:55:48;;;;;;;21.80;14.18;;;5.80;99.90;;;;;;494066;238;27455;-72
2022/04/22 02:57:50;;;;;;;22.33;14.70;;;5.80;99.90;;;;;;494106;238;27498;-68
2022/04/22 02:59:51;;;;;;;21.35;14.23;;;5.80;99.90;;;;;;497785;238;27953;-68
2022/04/22 03:01:53;;;;;;;21.87;14.52;;;5.80;99.90;;;;;;494420;238;28017;-68
2022/04/22 03:03:54;;;;;;;20.75;14.57;;;5.80;99.90;;;;;;494440;238;27434;-68
2022/04/22 03:05:55;;;;;;;27.35;16.17;;;5.70;99.90;;;;;;494394;238;27473;-69
2022/04/22 03:07:56;;;;;;;23.40;15.48;;;5.70;99.90;;;;;;490751;238;27485;-68
2022/04/22 03:09:57;;;;;;;25.37;16.60;;;5.70;99.90;;;;;;494085;238;27911;-69
2022/04/22 03:11:59;;;;;;;25.80;15.60;;;5.80;99.90;;;;;;492952;238;28024;-71
2022/04/22 03:14:00;;;;;;;23.30;16.20;;;5.80;99.90;;;;;;497330;238;27508;-68
2022/04/22 03:16:01;;;;;;;26.48;17.15;;;5.70;99.90;;;;;;496582;238;27491;-70
2022/04/22 03:18:02;;;;;;;24.98;15.77;;;5.70;99.90;;;;;;497984;238;27433;-68
2022/04/22 03:20:04;;;;;;;22.85;15.40;;;5.70;99.90;;;;;;494685;238;27466;-69
2022/04/22 03:22:05;;;;;;;26.35;17.00;;;5.70;99.90;;;;;;497123;238;28065;-71
2022/04/22 03:24:07;;;;;;;25.25;15.60;;;5.70;99.90;;;;;;496953;238;27503;-68
2022/04/22 03:26:07;;;;;;;26.25;16.52;;;5.70;99.90;;;;;;492517;238;27474;-69
2022/04/22 03:28:09;;;;;;;26.75;17.98;;;5.70;99.90;;;;;;498173;238;27462;-68
2022/04/22 03:30:10;;;;;;;25.95;16.67;;;5.60;99.90;;;;;;495434;238;27458;-69
2022/04/22 03:32:11;;;;;;;29.00;17.10;;;5.60;99.90;;;;;;495550;238;27967;-71
2022/04/22 03:34:12;;;;;;;26.30;16.80;;;5.60;99.90;;;;;;498621;238;27417;-67
2022/04/22 03:36:14;;;;;;;24.92;16.42;;;5.60;99.90;;;;;;494785;238;27549;-69
2022/04/22 03:38:15;;;;;;;24.67;16.75;;;5.60;99.90;;;;;;493747;238;27466;-68
2022/04/22 03:40:16;;;;;;;27.55;17.58;;;5.60;99.90;;;;;;495463;238;27429;-68
2022/04/22 03:42:17;;;;;;;29.50;18.40;;;5.60;99.90;;;;;;495148;238;28001;-70
2022/04/22 03:44:19;;;;;;;29.20;18.00;;;5.60;99.90;;;;;;495117;238;27352;-68
2022/04/22 03:46:20;;;;;;;27.90;17.60;;;5.50;99.90;;;;;;493785;238;27466;-69
2022/04/22 03:48:21;;;;;;;27.98;18.25;;;5.50;99.90;;;;;;494480;238;27525;-68
2022/04/22 03:50:23;;;;;;;27.92;18.62;;;5.50;99.90;;;;;;495069;238;27428;-68
2022/04/22 03:52:24;;;;;;;27.80;17.02;;;5.50;99.90;;;;;;493182;238;27915;-71
2022/04/22 03:54:25;;;;;;;30.17;19.80;;;5.50;99.90;;;;;;494315;238;28002;-70
2022/04/22 03:58:46;;;;;;;30.42;18.55;;;5.50;99.90;;;;;;493552;238;27466;-71
2022/04/22 04:00:48;;;;;;;30.92;18.05;;;5.50;99.90;;;;;;493258;238;27463;-68
2022/04/22 04:02:48;;;;;;;32.90;20.90;;;5.40;99.90;;;;;;498684;238;27532;-69
2022/04/22 04:04:50;;;;;;;31.65;20.65;;;5.50;99.90;;;;;;498644;238;27443;-68
2022/04/22 04:06:51;;;;;;;28.40;19.02;;;5.50;99.90;;;;;;498688;238;27886;-69
2022/04/22 04:15:59;;;;;;;36.47;21.37;;;5.40;99.90;;;;;;498645;238;27971;-70
2022/04/22 04:18:00;;;;;;;33.20;20.00;;;5.40;99.90;;;;;;498691;238;27959;-71
2022/04/22 04:24:40;;;;;;;34.92;20.95;;;5.30;99.90;;;;;;495544;238;27533;-72
2022/04/22 04:26:42;;;;;;;32.58;20.85;;;5.30;99.90;;;;;;493144;238;27450;-69
2022/04/22 04:28:43;;;;;;;35.42;21.67;;;5.30;99.90;;;;;;497611;238;27465;-70
2022/04/22 04:30:44;;;;;;;41.90;22.73;;;5.30;99.90;;;;;;495084;238;27441;-69
2022/04/22 04:32:45;;;;;;;33.92;20.90;;;5.30;99.90;;;;;;491912;238;27981;-69
2022/04/22 04:34:47;;;;;;;34.97;21.00;;;5.30;99.90;;;;;;493764;238;27863;-71
2022/04/22 04:36:48;;;;;;;36.58;21.35;;;5.30;99.90;;;;;;495738;238;27538;-67
2022/04/22 04:38:49;;;;;;;34.63;20.50;;;5.30;99.90;;;;;;498047;238;27477;-68
2022/04/22 04:40:51;;;;;;;38.88;20.88;;;5.30;99.90;;;;;;492186;238;27491;-68
2022/04/22 04:42:52;;;;;;;37.10;21.95;;;5.30;99.90;;;;;;494261;238;27519;-67
2022/04/22 04:44:53;;;;;;;36.67;21.90;;;5.30;99.90;;;;;;494507;238;27976;-70
2022/04/22 04:46:54;;;;;;;37.60;21.95;;;5.30;99.90;;;;;;494233;238;27451;-67
2022/04/22 04:48:58;;;;;;;42.88;22.87;;;5.30;99.90;;;;;;494328;238;27478;-68
2022/04/22 04:50:57;;;;;;;38.38;22.75;;;5.30;99.90;;;;;;494514;238;27524;-67
2022/04/22 04:52:58;;;;;;;35.40;22.10;;;5.40;99.90;;;;;;494898;238;27448;-67
2022/04/22 04:54:59;;;;;;;40.58;23.05;;;5.40;99.90;;;;;;495421;238;27915;-69
2022/04/22 04:57:01;;;;;;;37.72;22.58;;;5.40;99.90;;;;;;492187;238;27915;-67
2022/04/22 04:59:02;;;;;;;35.83;21.83;;;5.40;99.90;;;;;;495086;238;27454;-68
2022/04/22 05:01:03;;;;;;;42.60;24.00;;;5.30;99.90;;;;;;497260;238;27754;-67
2022/04/22 05:03:05;;;;;;;41.30;22.10;;;5.40;99.90;;;;;;494650;238;27592;-67
2022/04/22 05:05:06;;;;;;;39.00;22.00;;;5.40;99.90;;;;;;496262;238;27473;-69
2022/04/22 05:07:07;;;;;;;37.03;22.52;;;5.40;99.90;;;;;;494374;238;27980;-68
2022/04/22 05:09:08;;;;;;;39.50;22.67;;;5.40;99.90;;;;;;495139;238;27548;-68
2022/04/22 05:11:09;;;;;;;43.08;24.02;;;5.50;99.90;;;;;;495106;238;27453;-67
2022/04/22 05:13:11;;;;;;;43.53;24.73;;;5.50;99.90;;;;;;496148;238;27437;-67
2022/04/22 05:15:12;;;;;;;42.17;22.52;;;5.60;99.90;;;;;;496049;238;27464;-69
2022/04/22 05:17:13;;;;;;;40.15;23.58;;;5.60;99.90;;;;;;495288;238;27918;-67
2022/04/22 05:19:14;;;;;;;42.03;23.83;;;5.60;99.90;;;;;;494881;238;27472;-67
2022/04/22 05:21:16;;;;;;;41.63;22.75;;;5.60;99.90;;;;;;492637;238;27543;-67
2022/04/22 05:23:17;;;;;;;36.42;22.25;;;5.60;99.90;;;;;;493226;238;27547;-67
2022/04/22 05:25:18;;;;;;;39.33;23.48;;;5.60;99.90;;;;;;496669;238;27476;-68
2022/04/22 05:27:19;;;;;;;37.80;23.25;;;5.70;99.90;;;;;;493602;238;27877;-67
2022/04/22 05:34:00;;;;;;;39.38;22.92;;;5.70;99.90;;;;;;494582;238;27446;-69
2022/04/22 05:36:01;;;;;;;41.67;23.98;;;5.70;99.90;;;;;;498531;237;27342;-70
2022/04/22 05:38:02;;;;;;;37.58;22.27;;;5.70;99.90;;;;;;496679;238;27389;-70
2022/04/22 05:40:04;;;;;;;36.63;22.60;;;5.80;99.90;;;;;;494930;238;27433;-69
2022/04/22 05:42:05;;;;;;;42.13;23.67;;;5.80;99.90;;;;;;496033;238;28035;-70
2022/04/22 05:44:06;;;;;;;39.92;22.50;;;5.90;99.90;;;;;;495508;238;27486;-69
2022/04/22 05:46:07;;;;;;;38.05;22.60;;;5.90;99.90;;;;;;496161;238;27373;-69
2022/04/22 05:48:09;;;;;;;37.15;22.40;;;5.90;99.90;;;;;;496574;238;27560;-69
2022/04/22 05:50:10;;;;;;;39.60;21.77;;;6.00;99.90;;;;;;486009;233;27557;-69
2022/04/22 05:52:11;;;;;;;39.38;22.17;;;6.00;99.90;;;;;;479208;243;28063;-69
2022/04/22 05:54:12;;;;;;;39.78;22.48;;;6.00;99.90;;;;;;487598;238;27388;-69
2022/04/22 05:56:14;;;;;;;37.47;21.92;;;6.00;99.90;;;;;;483481;243;27456;-69
2022/04/22 05:58:15;;;;;;;40.63;23.83;;;6.00;99.90;;;;;;487500;238;27396;-70
2022/04/22 06:00:16;;;;;;;41.42;24.05;;;6.00;99.90;;;;;;482689;241;28412;-73
2022/04/22 06:02:18;;;;;;;37.90;22.13;;;6.00;99.90;;;;;;489328;238;28897;-66
2022/04/22 06:04:19;;;;;;;38.92;23.12;;;6.10;99.90;;;;;;490535;240;27945;-74
2022/04/22 06:06:21;;;;;;;36.67;21.90;;;6.10;99.90;;;;;;490921;242;27878;-67
2022/04/22 06:10:33;;;;;;;38.72;23.05;;;6.10;99.90;;;;;;484167;242;28099;-71
2022/04/22 06:12:34;;;;;;;40.67;23.80;;;6.20;99.90;;;;;;490930;240;27466;-67
2022/04/22 06:14:36;;;;;;;41.22;22.25;;;6.20;99.90;;;;;;490730;240;27943;-69
2022/04/22 06:16:39;;;;;;;34.43;21.03;;;6.30;99.90;;;;;;490692;241;27934;-68
2022/04/22 06:18:39;;;;;;;35.10;20.90;;;6.30;99.90;;;;;;490765;240;29199;-67
2022/04/22 06:20:40;;;;;;;36.22;22.35;;;6.30;99.90;;;;;;490666;242;27550;-72
2022/04/22 06:22:41;;;;;;;34.63;20.63;;;6.30;99.90;;;;;;488599;241;27467;-69
2022/04/22 06:24:43;;;;;;;43.55;23.05;;;6.40;99.90;;;;;;490362;240;28592;-70
2022/04/22 06:26:44;;;;;;;37.63;22.30;;;6.40;99.90;;;;;;489137;240;27483;-68
2022/04/22 06:28:45;;;;;;;35.00;20.63;;;6.50;99.90;;;;;;490074;242;28043;-75
2022/04/22 06:30:47;;;;;;;34.70;20.90;;;6.50;99.90;;;;;;490225;241;28424;-71
2022/04/22 06:32:48;;;;;;;37.50;22.10;;;6.50;99.90;;;;;;490551;240;28937;-69
2022/04/22 06:34:49;;;;;;;34.87;21.60;;;6.60;99.90;;;;;;491050;241;27423;-67
2022/04/22 06:36:50;;;;;;;35.07;20.23;;;6.60;99.90;;;;;;490767;242;28802;-68
2022/04/22 06:38:57;;;;;;;31.37;19.60;;;6.70;99.90;;;;;;489941;240;28047;-67
2022/04/22 06:45:47;;;;;;;32.40;20.17;;;6.90;99.90;;;;;;488625;241;28816;-67
2022/04/22 06:47:48;;;;;;;32.93;20.70;;;6.90;99.90;;;;;;490983;242;28468;-69
2022/04/22 06:49:49;;;;;;;37.93;20.73;;;6.90;99.90;;;;;;490970;241;28804;-67
2022/04/22 06:51:51;;;;;;;34.70;19.60;;;7.00;99.90;;;;;;489662;240;27569;-68
2022/04/22 06:53:52;;;;;;;33.83;20.23;;;7.10;99.90;;;;;;489488;240;27817;-71
2022/04/22 06:55:53;;;;;;;34.87;21.03;;;7.10;99.90;;;;;;487502;242;28357;-69
2022/04/22 06:57:54;;;;;;;37.00;20.83;;;7.20;99.90;;;;;;485089;242;28817;-70
2022/04/22 06:59:56;;;;;;;34.97;20.63;;;7.30;99.90;;;;;;478452;245;27976;-72
2022/04/22 07:01:57;;;;;;;32.23;21.30;;;7.40;99.90;;;;;;478320;246;27851;-69
2022/04/22 07:03:58;;;;;;;31.20;19.27;;;7.40;99.90;;;;;;478895;246;28100;-71
2022/04/22 07:05:59;;;;;;;33.83;20.30;;;7.50;99.90;;;;;;479530;246;27965;-68
2022/04/22 07:08:02;;;;;;;29.83;18.93;;;7.60;99.90;;;;;;479815;245;28075;-69
2022/04/22 07:10:02;;;;;;;31.23;18.60;;;7.80;99.90;;;;;;480084;246;27820;-69
2022/04/22 07:12:04;;;;;;;31.70;19.60;;;7.80;99.90;;;;;;479747;245;28042;-67
2022/04/22 07:14:04;;;;;;;29.20;19.13;;;7.80;99.90;;;;;;481232;245;28606;-73
2022/04/22 07:16:06;;;;;;;27.73;18.80;;;7.90;99.90;;;;;;480007;246;27984;-68
2022/04/22 07:18:07;;;;;;;30.73;18.80;;;7.90;99.90;;;;;;478147;245;28479;-68
2022/04/22 07:20:12;;;;;;;26.63;17.10;;;8.10;99.90;;;;;;486186;235;28008;-74
2022/04/22 07:22:10;;;;;;;26.70;17.90;;;8.30;99.90;;;;;;493948;240;27585;-69
2022/04/22 07:24:11;;;;;;;31.20;20.90;;;8.40;99.90;;;;;;494406;240;27849;-70
2022/04/22 07:26:12;;;;;;;27.93;18.60;;;8.40;99.90;;;;;;494593;240;27628;-69
2022/04/22 07:28:13;;;;;;;26.97;17.60;;;8.50;99.90;;;;;;494650;240;27927;-67
2022/04/22 07:30:15;;;;;;;26.53;17.50;;;8.60;99.90;;;;;;494516;240;28458;-73
2022/04/22 07:32:16;;;;;;;26.73;17.73;;;8.80;99.90;;;;;;494931;236;28394;-68
2022/04/22 07:34:17;;;;;;;26.60;17.63;;;8.90;99.90;;;;;;494358;236;28048;-70
2022/04/22 07:36:18;;;;;;;27.03;18.70;;;8.80;99.90;;;;;;494479;240;28050;-70
2022/04/22 07:38:20;;;;;;;25.80;17.73;;;8.90;99.90;;;;;;494495;240;27917;-70
2022/04/22 07:40:21;;;;;;;28.37;18.27;;;8.80;99.90;;;;;;494565;240;27962;-71
2022/04/22 07:42:22;;;;;;;27.17;18.13;;;8.80;99.90;;;;;;494737;237;27997;-70
2022/04/22 07:46:49;;;;;;;28.80;17.80;;;8.70;99.90;;;;;;488692;239;28439;-69
2022/04/22 07:48:50;;;;;;;25.60;16.80;;;9.00;99.90;;;;;;494992;236;27805;-71
2022/04/22 07:50:52;;;;;;;24.63;17.10;;;9.20;99.90;;;;;;495315;236;28005;-73
2022/04/22 07:52:52;;;;;;;25.70;16.53;;;9.40;99.90;;;;;;494142;240;28210;-72
2022/04/22 07:54:54;;;;;;;24.13;17.13;;;9.50;99.90;;;;;;494461;240;28071;-70
2022/04/22 07:56:56;;;;;;;28.73;17.50;;;9.60;99.90;;;;;;494549;240;28390;-71
2022/04/22 07:58:56;;;;;;;23.23;16.87;;;9.50;99.90;;;;;;492707;240;28532;-75
2022/04/22 08:00:57;;;;;;;23.23;16.07;;;9.60;99.90;;;;;;492719;240;28557;-68
2022/04/22 08:02:59;;;;;;;21.63;15.97;;;9.70;99.90;;;;;;494594;240;27786;-70
2022/04/22 08:05:00;;;;;;;21.90;14.73;;;9.80;99.90;;;;;;495616;236;28136;-70
2022/04/22 08:07:02;;;;;;;20.80;15.43;;;9.90;99.90;;;;;;494519;240;27955;-73
2022/04/22 08:09:02;;;;;;;25.80;15.80;;;9.60;99.90;;;;;;495768;236;27859;-70
2022/04/22 08:11:04;;;;;;;24.37;16.40;;;9.70;99.90;;;;;;494546;240;28084;-70
2022/04/22 08:13:08;;;;;;;22.13;16.70;;;9.70;99.90;;;;;;494687;240;27902;-70
2022/04/22 08:15:09;;;;;;;21.80;15.47;;;9.70;99.90;;;;;;494748;240;28137;-68
2022/04/22 08:17:10;;;;;;;21.43;15.20;;;9.60;99.90;;;;;;494722;240;27735;-70
2022/04/22 08:19:12;;;;;;;24.60;16.60;;;9.60;99.90;;;;;;495032;236;27971;-73
2022/04/22 08:21:13;;;;;;;21.53;15.17;;;9.50;99.90;;;;;;478778;246;28435;-70
2022/04/22 08:23:16;;;;;;;19.63;13.93;;;9.50;99.90;;;;;;473226;248;27903;-70
2022/04/22 08:25:15;;;;;;;20.37;14.70;;;9.60;99.90;;;;;;469744;249;28852;-75
2022/04/22 08:27:17;;;;;;;20.70;15.03;;;9.50;99.90;;;;;;476280;246;28400;-69
2022/04/22 08:29:18;;;;;;;22.20;15.10;;;9.40;99.90;;;;;;473413;246;28247;-70
2022/04/22 08:31:19;;;;;;;19.93;13.60;;;9.40;99.90;;;;;;474740;246;27947;-70
2022/04/22 08:33:21;;;;;;;19.70;13.40;;;9.50;99.90;;;;;;474947;246;27863;-70
2022/04/22 08:35:22;;;;;;;18.90;13.90;;;9.70;99.90;;;;;;473084;246;28217;-74
2022/04/22 08:37:23;;;;;;;18.73;14.00;;;9.80;99.90;;;;;;473388;246;28159;-71
2022/04/22 08:39:24;;;;;;;18.93;13.93;;;9.80;99.90;;;;;;476928;246;27804;-70
2022/04/22 08:41:26;;;;;;;19.80;13.77;;;9.80;99.90;;;;;;475224;246;28492;-71
2022/04/22 08:43:27;;;;;;;23.40;14.90;;;9.90;99.90;;;;;;473378;246;28460;-70
2022/04/22 08:45:28;;;;;;;21.30;14.10;;;9.90;99.90;;;;;;464236;253;28508;-73
2022/04/22 08:49:58;;;;;;;19.20;13.67;;;10.10;99.90;;;;;;476982;246;27867;-68
2022/04/22 08:52:00;;;;;;;18.47;13.13;;;10.20;99.90;;;;;;474587;246;28417;-68
2022/04/22 08:54:01;;;;;;;20.50;13.73;;;10.20;99.90;;;;;;473311;246;27968;-70
2022/04/22 08:56:02;;;;;;;19.30;13.83;;;10.40;99.90;;;;;;473173;246;27905;-69
2022/04/22 08:58:05;;;;;;;18.17;14.20;;;10.40;99.90;;;;;;463585;253;27797;-70
2022/04/22 09:00:05;;;;;;;19.80;14.17;;;10.40;99.90;;;;;;473752;246;27865;-71
2022/04/22 09:02:06;;;;;;;23.13;15.93;;;10.40;99.90;;;;;;477474;246;28090;-70
2022/04/22 09:04:07;;;;;;;21.20;14.50;;;10.30;99.90;;;;;;478696;246;28304;-69
2022/04/22 09:06:09;;;;;;;18.53;13.93;;;10.40;99.90;;;;;;479297;246;28457;-71
2022/04/22 09:08:10;;;;;;;16.87;12.50;;;10.50;99.90;;;;;;476862;246;27929;-70
2022/04/22 09:10:11;;;;;;;18.70;14.00;;;10.50;99.90;;;;;;476942;246;27866;-70
2022/04/22 09:12:12;;;;;;;18.20;13.23;;;10.70;99.90;;;;;;477384;246;28286;-69
2022/04/22 09:14:14;;;;;;;17.13;12.67;;;10.70;99.90;;;;;;465342;253;28668;-69
2022/04/22 09:16:17;;;;;;;16.07;12.53;;;10.70;99.90;;;;;;475168;246;28759;-71
2022/04/22 09:18:16;;;;;;;16.47;11.87;;;10.80;99.90;;;;;;472624;246;28150;-70
2022/04/22 09:20:17;;;;;;;16.53;12.10;;;11.00;99.90;;;;;;474861;246;28092;-69
2022/04/22 09:22:20;;;;;;;18.20;12.77;;;11.00;99.90;;;;;;475160;246;28213;-69
2022/04/22 09:24:21;;;;;;;16.17;12.23;;;10.90;99.90;;;;;;474895;246;28576;-73
2022/04/22 09:26:22;;;;;;;15.00;12.37;;;10.80;99.90;;;;;;476414;246;28725;-72
2022/04/22 09:28:24;;;;;;;15.83;11.77;;;10.90;99.90;;;;;;473053;246;31515;-72
2022/04/22 09:30:25;;;;;;;15.83;12.37;;;11.00;99.90;;;;;;476654;246;28958;-70
2022/04/22 09:32:26;;;;;;;18.40;13.40;;;11.00;99.90;;;;;;475505;246;28115;-70
2022/04/22 09:34:27;;;;;;;17.20;13.90;;;11.20;99.90;;;;;;474386;246;28241;-68
2022/04/22 09:43:27;;;;;;;18.43;13.80;;;11.20;99.90;;;;;;476421;246;28592;-68
2022/04/22 09:45:28;;;;;;;16.20;12.47;;;11.20;99.90;;;;;;480021;246;28148;-70
2022/04/22 09:47:32;;;;;;;17.77;12.87;;;11.40;99.90;;;;;;480356;246;28216;-73
2022/04/22 09:49:34;;;;;;;17.00;11.60;;;11.50;99.90;;;;;;479209;239;28176;-70
2022/04/22 09:51:35;;;;;;;14.90;12.07;;;11.70;99.90;;;;;;487390;243;28104;-69
2022/04/22 09:53:36;;;;;;;16.20;11.97;;;11.80;99.90;;;;;;486180;243;28454;-69
2022/04/22 09:55:38;;;;;;;16.50;11.50;;;11.50;99.90;;;;;;487299;243;28301;-71
2022/04/22 09:57:39;;;;;;;14.10;10.87;;;11.50;99.90;;;;;;486810;243;28727;-69
2022/04/22 09:59:40;;;;;;;13.70;11.10;;;11.60;99.90;;;;;;488125;242;28850;-71
2022/04/22 10:01:41;;;;;;;16.60;11.87;;;12.00;99.90;;;;;;468657;249;28177;-69
2022/04/22 10:03:43;;;;;;;15.07;11.40;;;11.90;99.90;;;;;;476032;248;28314;-69
2022/04/22 10:05:45;;;;;;;15.57;11.20;;;11.90;99.90;;;;;;471519;251;28341;-71
2022/04/22 10:07:45;;;;;;;16.53;12.47;;;12.10;99.90;;;;;;484052;241;28448;-69
2022/04/22 10:09:47;;;;;;;16.67;11.23;;;12.00;99.90;;;;;;485488;243;28528;-68
2022/04/22 10:11:48;;;;;;;16.43;11.73;;;11.90;99.90;;;;;;470288;248;28812;-72
2022/04/22 10:13:50;;;;;;;13.53;10.10;;;;;;;;;;469993;248;28900;-69
2022/04/22 10:15:51;;;;;;;16.17;10.97;;;11.90;99.90;;;;;;483731;243;27165;-73
2022/04/22 10:17:53;;;;;;;13.40;10.47;;;12.10;99.90;;;;;;486676;243;28465;-71
2022/04/22 10:19:54;;;;;;;15.40;11.80;;;12.20;99.90;;;;;;485247;243;28344;-73
2022/04/22 10:21:55;;;;;;;15.57;11.23;;;12.00;99.90;;;;;;481586;245;28335;-72
2022/04/22 10:23:57;;;;;;;11.87;9.43;;;12.20;99.90;;;;;;475098;245;28473;-70
2022/04/22 10:25:58;;;;;;;14.03;10.10;;;12.20;99.90;;;;;;476649;249;28392;-71
2022/04/22 10:27:59;;;;;;;17.43;11.17;;;12.30;99.90;;;;;;476356;249;28449;-69
2022/04/22 10:30:00;;;;;;;14.00;11.40;;;12.40;99.90;;;;;;476254;249;29113;-74
2022/04/22 10:32:02;;;;;;;15.33;11.40;;;12.30;99.90;;;;;;476929;249;28538;-69
2022/04/22 10:34:03;;;;;;;10.53;9.33;;;12.30;99.90;;;;;;485678;243;28074;-69
2022/04/22 10:36:04;;;;;;;12.90;10.07;;;12.60;99.90;;;;;;486327;243;28800;-69
2022/04/22 10:38:05;;;;;;;11.20;9.03;;;12.80;99.90;;;;;;485097;243;28936;-69
2022/04/22 10:40:07;;;;;;;12.90;10.77;;;13.00;99.90;;;;;;486548;243;28207;-72
2022/04/22 10:42:08;;;;;;;12.93;9.67;;;12.80;99.90;;;;;;485824;243;28818;-69
2022/04/22 10:48:48;;;;;;;12.50;9.27;;;13.40;99.90;;;;;;482577;245;28251;-70
2022/04/22 10:50:50;;;;;;;13.40;9.53;;;;;;;;;;473832;248;28911;-70
2022/04/22 10:52:51;;;;;;;12.00;9.67;;;13.10;99.90;;;;;;466560;252;26694;-71
2022/04/22 10:54:53;;;;;;;13.93;10.40;;;13.10;99.90;;;;;;475850;249;28282;-74
2022/04/22 10:56:54;;;;;;;13.27;9.23;;;13.40;99.90;;;;;;481955;246;28012;-73
2022/04/22 10:58:55;;;;;;;13.30;10.13;;;13.20;99.90;;;;;;470999;250;29043;-72
2022/04/22 11:00:59;;;;;;;12.83;9.57;;;13.30;99.90;;;;;;464399;253;28993;-71
2022/04/22 11:02:58;;;;;;;11.87;9.73;;;13.20;99.90;;;;;;474021;250;28803;-72
2022/04/22 11:05:00;;;;;;;11.00;9.80;;;;;;;;;;466632;254;28270;-71
2022/04/22 11:07:01;;;;;;;12.53;10.17;;;13.70;99.90;;;;;;466560;252;26739;-72
2022/04/22 11:09:03;;;;;;;9.67;8.60;;;13.50;99.90;;;;;;462423;257;28817;-69
2022/04/22 11:11:04;;;;;;;11.50;8.97;;;13.60;99.90;;;;;;482643;246;28607;-69
2022/04/22 11:13:05;;;;;;;12.67;9.40;;;13.70;99.90;;;;;;471882;250;28704;-70
2022/04/22 11:15:06;;;;;;;18.53;9.33;;;13.70;99.90;;;;;;472779;250;28390;-69
2022/04/22 11:17:08;;;;;;;11.83;10.20;;;13.80;99.90;;;;;;474110;249;28460;-71